Time;durP1;ratioP1;P1;durP2;ratioP2;P2;SDS_P1;SDS_P2;PMS_P1;PMS_P2;Temp;Humidity;BMP_temperature;BMP_pressure;BME280_temperature;BME280_humidity;BME280_pressure;Samples;Min_cycle;Max_cycle;Signal;HPM_P1;HPM_P2
2022/04/28 00:00:55;;;;;;;7.13;0.60;;;;;;;11.50;57.66;102522.25;7388347;19;20682;-66
2022/04/28 00:03:23;;;;;;;4.45;0.80;;;;;;;11.44;58.52;102528.00;7386879;19;20037;-66
2022/04/28 00:05:50;;;;;;;5.47;1.10;;;;;;;11.42;59.14;102522.84;7387990;19;20019;-66
2022/04/28 00:08:17;;;;;;;8.65;0.63;;;;;;;11.40;59.78;102516.84;7388688;19;20043;-65
2022/04/28 00:10:48;;;;;;;5.78;0.88;;;;;;;11.46;59.72;102513.75;7388275;19;20019;-65
2022/04/28 00:13:16;;;;;;;4.82;0.70;;;;;;;11.47;59.49;102510.16;7389085;19;20073;-65
2022/04/28 00:15:44;;;;;;;4.97;1.20;;;;;;;11.41;59.36;102504.50;7387643;19;20038;-64
2022/04/28 00:18:11;;;;;;;4.53;0.82;;;;;;;11.44;59.83;102505.09;7386773;19;20012;-65
2022/04/28 00:20:41;;;;;;;2.97;0.50;;;;;;;11.45;59.95;102500.69;7392019;19;20365;-65
2022/04/28 00:23:13;;;;;;;3.30;0.50;;;;;;;11.36;60.82;102499.59;7382822;19;20083;-62
2022/04/28 00:25:40;;;;;;;5.80;0.70;;;;;;;11.37;61.63;102493.38;7391097;19;20014;-66
2022/04/28 00:28:07;;;;;;;7.40;0.77;;;;;;;11.32;62.09;102503.44;7385645;19;20602;-65
2022/04/28 00:30:38;;;;;;;5.38;0.80;;;;;;;11.28;63.00;102494.03;7390117;19;20021;-63
2022/04/28 00:33:12;;;;;;;9.95;1.08;;;;;;;11.26;63.19;102501.25;7384450;19;20010;-64
2022/04/28 00:35:38;;;;;;;8.70;1.20;;;;;;;11.29;63.18;102501.00;7386470;19;20087;-67
2022/04/28 00:38:05;;;;;;;10.05;1.33;;;;;;;11.28;63.60;102507.22;7389615;19;20014;-65
2022/04/28 00:40:32;;;;;;;7.63;1.00;;;;;;;11.24;64.10;102503.16;7389762;19;20022;-65
2022/04/28 00:45:47;;;;;;;6.40;1.17;;;;;;;11.18;64.66;102503.59;7386517;19;20384;-65
2022/04/28 00:51:06;;;;;;;5.25;0.80;;;;;;;11.24;64.14;102505.78;7386865;19;20010;-64
2022/04/28 00:53:48;;;;;;;10.15;1.58;;;;;;;11.23;64.87;102501.47;7384344;19;20014;-67
2022/04/28 00:56:16;;;;;;;5.53;1.17;;;;;;;11.25;64.99;102507.47;7384157;19;20015;-63
2022/04/28 00:58:43;;;;;;;4.95;0.93;;;;;;;11.18;65.03;102508.03;7386746;19;20014;-64
2022/04/28 01:01:10;;;;;;;6.75;1.05;;;;;;;11.17;65.32;102503.75;7385897;19;20026;-65
2022/04/28 01:03:37;;;;;;;11.10;1.00;;;;;;;11.14;65.68;102507.41;7388069;19;20025;-64
2022/04/28 01:06:04;;;;;;;8.05;0.90;;;;;;;11.14;65.49;102504.78;7385941;19;20021;-62
2022/04/28 01:08:31;;;;;;;5.53;0.88;;;;;;;11.17;66.12;102501.94;7388416;19;20010;-65
2022/04/28 01:10:59;;;;;;;10.38;0.90;;;;;;;11.21;65.22;102503.38;7387793;19;20526;-64
2022/04/28 01:13:26;;;;;;;7.80;0.95;;;;;;;11.06;65.54;102507.16;7387675;19;20097;-65
2022/04/28 01:15:54;;;;;;;7.00;0.75;;;;;;;11.07;65.44;102511.50;7385038;19;20017;-63
2022/04/28 01:18:21;;;;;;;6.38;0.98;;;;;;;11.01;65.71;102511.94;7384520;19;20019;-65
2022/04/28 01:20:49;;;;;;;5.75;1.10;;;;;;;11.01;65.95;102504.03;7387786;19;20021;-66
2022/04/28 01:23:18;;;;;;;5.95;1.02;;;;;;;11.01;66.01;102504.03;7384579;19;20018;-66
2022/04/28 01:25:45;;;;;;;7.35;1.58;;;;;;;11.03;66.31;102507.38;7385134;19;20188;-66
2022/04/28 01:28:12;;;;;;;8.25;1.35;;;;;;;11.04;66.15;102506.44;7388236;19;20486;-65
2022/04/28 01:30:43;;;;;;;8.50;0.90;;;;;;;11.01;65.65;102511.94;7386775;19;20097;-67
2022/04/28 01:33:14;;;;;;;5.97;1.13;;;;;;;10.99;65.85;102503.31;7387351;19;20032;-65
2022/04/28 01:35:41;;;;;;;13.00;1.08;;;;;;;10.96;65.81;102514.91;7388291;19;20480;-63
2022/04/28 01:38:08;;;;;;;4.32;1.05;;;;;;;10.96;65.91;102514.91;7384560;19;20006;-64
2022/04/28 01:40:35;;;;;;;6.60;1.05;;;;;;;10.96;66.14;102512.28;7385983;19;20114;-63
2022/04/28 01:43:02;;;;;;;5.10;1.02;;;;;;;10.98;66.09;102506.88;7384498;19;20025;-66
2022/04/28 01:45:29;;;;;;;6.60;1.10;;;;;;;10.99;66.24;102508.56;7383518;19;20015;-63
2022/04/28 01:47:56;;;;;;;5.40;1.20;;;;;;;10.95;66.07;102502.69;7387313;19;20018;-64
2022/04/28 01:50:23;;;;;;;5.07;1.20;;;;;;;10.96;65.87;102500.91;7387009;19;20547;-65
2022/04/28 01:55:35;;;;;;;6.50;1.00;;;;;;;10.98;65.44;102501.63;7383474;19;20336;-65
2022/04/28 01:58:02;;;;;;;6.93;0.98;;;;;;;10.95;65.53;102509.75;7386996;19;20011;-63
2022/04/28 02:00:29;;;;;;;6.80;1.10;;;;;;;10.94;65.20;102505.44;7384364;19;20091;-65
2022/04/28 02:02:56;;;;;;;9.23;0.75;;;;;;;10.91;65.65;102510.94;7383714;19;20023;-65
2022/04/28 02:05:24;;;;;;;5.90;1.90;;;;;;;10.90;66.07;102504.00;7386296;19;20010;-65
2022/04/28 02:07:51;;;;;;;9.40;1.25;;;;;;;10.87;66.07;102512.13;7383455;19;20022;-66
2022/04/28 02:10:18;;;;;;;10.80;1.33;;;;;;;10.86;65.21;102508.66;7386921;19;20558;-65
2022/04/28 02:12:45;;;;;;;6.75;1.40;;;;;;;10.89;65.10;102508.41;7386495;19;20021;-65
2022/04/28 02:15:12;;;;;;;5.65;0.88;;;;;;;10.92;64.90;102515.25;7386700;19;20074;-63
2022/04/28 02:17:40;;;;;;;3.22;0.85;;;;;;;10.93;64.89;102511.66;7386462;19;20028;-65
2022/04/28 02:20:11;;;;;;;4.03;0.73;;;;;;;10.89;64.65;102507.56;7385965;19;20014;-64
2022/04/28 02:22:45;;;;;;;5.70;0.95;;;;;;;10.82;64.28;102514.25;7383810;19;20336;-63
2022/04/28 02:25:12;;;;;;;11.27;1.20;;;;;;;10.81;65.03;102504.66;7385502;19;20047;-65
2022/04/28 02:27:39;;;;;;;6.20;1.00;;;;;;;10.76;64.58;102506.81;7384484;19;20022;-65
2022/04/28 02:30:06;;;;;;;6.75;1.30;;;;;;;10.73;65.74;102503.44;7387076;19;20027;-63
2022/04/28 02:35:19;;;;;;;5.47;1.02;;;;;;;10.72;64.82;102509.63;7383655;19;20736;-63
2022/04/28 02:37:45;;;;;;;6.43;1.10;;;;;;;10.73;64.47;102513.97;7383052;19;20014;-66
2022/04/28 02:40:12;;;;;;;6.70;1.27;;;;;;;10.70;64.30;102514.19;7384825;19;19999;-64
2022/04/28 02:42:40;;;;;;;4.70;0.75;;;;;;;10.67;64.38;102510.91;7381581;19;20020;-65
2022/04/28 02:45:07;;;;;;;5.78;1.25;;;;;;;10.65;64.41;102510.22;7383206;19;20017;-65
2022/04/28 02:47:35;;;;;;;6.95;0.75;;;;;;;10.62;64.38;102502.53;7386651;19;20015;-64
2022/04/28 02:50:05;;;;;;;5.93;1.05;;;;;;;10.62;64.77;102499.88;7386375;19;20042;-63
2022/04/28 02:52:32;;;;;;;5.53;0.70;;;;;;;10.65;64.11;102494.41;7382798;19;20038;-64
2022/04/28 02:54:59;;;;;;;6.38;1.20;;;;;;;10.63;64.35;102493.69;7380575;19;20015;-64
2022/04/28 02:57:26;;;;;;;9.73;1.02;;;;;;;10.61;64.42;102499.06;7386748;19;20978;-63
2022/04/28 02:59:53;;;;;;;5.15;0.93;;;;;;;10.63;64.32;102502.41;7388274;19;20014;-65
2022/04/28 03:02:19;;;;;;;6.65;0.95;;;;;;;10.62;64.69;102506.00;7390560;19;20011;-66
2022/04/28 03:04:46;;;;;;;6.95;0.80;;;;;;;10.59;64.55;102500.97;7390784;19;20519;-64
2022/04/28 03:12:44;;;;;;;5.13;1.05;;;;;;;10.59;64.93;102500.13;7390029;19;20013;-62
2022/04/28 03:15:12;;;;;;;4.55;0.88;;;;;;;10.58;64.87;102493.16;7389450;19;20017;-63
2022/04/28 03:17:38;;;;;;;9.52;1.10;;;;;;;10.58;65.06;102493.16;7389277;19;20117;-67
2022/04/28 03:20:06;;;;;;;5.43;1.00;;;;;;;10.56;66.26;102492.47;7389094;19;20026;-64
2022/04/28 03:22:33;;;;;;;7.72;1.17;;;;;;;10.56;65.72;102497.72;7390132;19;20039;-62
2022/04/28 03:25:00;;;;;;;7.03;1.40;;;;;;;10.58;65.81;102499.28;7390841;19;20332;-64
2022/04/28 03:27:27;;;;;;;5.53;1.30;;;;;;;10.59;66.25;102500.13;7388850;19;20011;-65
2022/04/28 03:29:54;;;;;;;6.90;1.00;;;;;;;10.61;66.69;102508.75;7390787;19;20025;-67
2022/04/28 03:32:21;;;;;;;9.70;1.13;;;;;;;10.59;66.56;102513.28;7388731;19;20468;-65
2022/04/28 03:34:48;;;;;;;4.00;1.23;;;;;;;10.58;66.52;102511.59;7391875;19;20011;-62
2022/04/28 03:37:15;;;;;;;5.88;1.10;;;;;;;10.59;66.96;102513.28;7388244;19;20017;-65
2022/04/28 03:39:42;;;;;;;10.88;1.52;;;;;;;10.57;66.74;102509.91;7388092;19;20507;-63
2022/04/28 03:42:08;;;;;;;9.75;1.92;;;;;;;10.57;67.33;102509.91;7387499;19;20600;-65
2022/04/28 03:44:35;;;;;;;7.78;1.15;;;;;;;10.52;67.30;102504.97;7389713;19;20021;-65
2022/04/28 03:47:03;;;;;;;7.18;1.30;;;;;;;10.48;67.52;102506.16;7390570;19;20014;-65
2022/04/28 03:49:30;;;;;;;8.75;1.25;;;;;;;10.49;67.84;102507.84;7389334;19;20228;-65
2022/04/28 03:51:57;;;;;;;5.22;1.08;;;;;;;10.48;67.85;102513.22;7388210;19;20029;-65
2022/04/28 03:54:24;;;;;;;9.65;1.10;;;;;;;10.48;68.08;102521.94;7392326;19;20364;-63
2022/04/28 03:56:51;;;;;;;9.60;2.10;;;;;;;10.43;68.62;102516.19;7385698;19;20006;-65
2022/04/28 03:59:19;;;;;;;8.27;2.83;;;;;;;10.43;69.08;102502.19;7387673;19;20011;-64
2022/04/28 04:01:45;;;;;;;10.18;1.55;;;;;;;10.45;68.62;102513.44;7392306;19;20094;-63
2022/04/28 04:04:19;;;;;;;7.20;1.70;;;;;;;10.44;68.50;102517.88;7386265;19;20014;-64
2022/04/28 04:06:50;;;;;;;5.38;1.25;;;;;;;10.43;68.49;102510.91;7387267;19;20044;-63
2022/04/28 04:09:20;;;;;;;6.22;1.52;;;;;;;10.42;68.85;102518.91;7387138;19;20436;-67
2022/04/28 04:11:47;;;;;;;7.45;1.80;;;;;;;10.41;68.63;102519.88;7391771;19;20101;-64
2022/04/28 04:14:15;;;;;;;8.07;1.52;;;;;;;10.43;68.56;102521.44;7391455;19;20713;-66
2022/04/28 04:16:42;;;;;;;9.57;1.88;;;;;;;10.46;68.55;102521.25;7385242;19;20250;-66
2022/04/28 04:19:08;;;;;;;10.93;1.42;;;;;;;10.42;68.40;102519.75;7386880;19;20031;-64
2022/04/28 04:21:35;;;;;;;9.95;1.55;;;;;;;10.40;68.70;102521.66;7388459;19;20086;-65
2022/04/28 04:24:03;;;;;;;7.50;1.60;;;;;;;10.39;68.99;102527.03;7387586;19;20019;-64
2022/04/28 04:26:30;;;;;;;8.50;1.55;;;;;;;10.38;68.69;102517.44;7386495;19;20482;-64
2022/04/28 04:28:57;;;;;;;6.18;1.33;;;;;;;10.41;68.68;102522.50;7385337;19;20011;-65
2022/04/28 04:34:11;;;;;;;5.55;1.67;;;;;;;10.36;69.71;102525.47;7386318;19;20024;-65
2022/04/28 04:36:38;;;;;;;9.68;1.60;;;;;;;10.38;69.13;102534.09;7384935;19;20102;-64
2022/04/28 04:39:05;;;;;;;12.27;1.83;;;;;;;10.38;68.26;102531.44;7388326;19;20018;-63
2022/04/28 04:41:32;;;;;;;10.40;1.80;;;;;;;10.37;68.78;102529.75;7383222;19;20364;-65
2022/04/28 04:43:58;;;;;;;6.65;1.40;;;;;;;10.35;68.71;102534.31;7388493;19;20014;-64
2022/04/28 04:46:25;;;;;;;8.55;2.42;;;;;;;10.35;68.37;102539.56;7385998;19;20319;-64
2022/04/28 04:48:52;;;;;;;9.13;1.67;;;;;;;10.36;68.64;102546.53;7386083;19;20014;-64
2022/04/28 04:51:25;;;;;;;11.05;2.42;;;;;;;10.36;69.28;102543.91;7384402;19;20006;-65
2022/04/28 04:53:52;;;;;;;4.65;1.60;;;;;;;10.36;68.74;102551.78;7389144;19;20086;-64
2022/04/28 04:56:19;;;;;;;7.97;1.38;;;;;;;10.38;68.43;102549.03;7386493;19;20015;-64
2022/04/28 04:58:46;;;;;;;10.10;1.48;;;;;;;10.43;67.98;102557.44;7386002;19;20010;-64
2022/04/28 05:01:13;;;;;;;7.07;1.75;;;;;;;10.47;68.05;102553.63;7387257;19;20017;-65
2022/04/28 05:03:41;;;;;;;11.32;1.58;;;;;;;10.49;68.00;102555.22;7387153;19;20447;-65
2022/04/28 05:06:08;;;;;;;5.30;1.50;;;;;;;10.49;68.13;102559.63;7384004;19;20010;-64
2022/04/28 05:08:35;;;;;;;6.28;1.38;;;;;;;10.53;67.52;102555.81;7384408;19;20009;-66
2022/04/28 05:11:02;;;;;;;7.65;1.77;;;;;;;10.54;68.13;102568.88;7386179;19;20395;-65
2022/04/28 05:13:29;;;;;;;7.28;1.52;;;;;;;10.56;68.03;102564.38;7387748;19;20011;-66
2022/04/28 05:15:56;;;;;;;5.25;1.30;;;;;;;10.57;67.56;102565.19;7389305;19;20382;-64
2022/04/28 05:18:23;;;;;;;5.20;1.08;;;;;;;10.61;67.98;102569.31;7388281;19;20010;-64
2022/04/28 05:20:50;;;;;;;6.15;1.73;;;;;;;10.61;67.46;102567.50;7381900;19;20014;-65
2022/04/28 05:23:17;;;;;;;6.60;1.25;;;;;;;10.63;67.18;102570.84;7387781;19;20316;-66
2022/04/28 05:25:44;;;;;;;5.03;1.48;;;;;;;10.65;67.18;102573.38;7385162;19;20128;-63
2022/04/28 05:28:11;;;;;;;5.30;1.48;;;;;;;10.65;67.63;102576.88;7382881;19;20006;-64
2022/04/28 05:30:38;;;;;;;9.05;1.92;;;;;;;10.70;67.13;102582.63;7387255;19;20023;-63
2022/04/28 05:33:05;;;;;;;8.05;2.05;;;;;;;10.70;67.63;102585.28;7383200;19;20364;-65
2022/04/28 05:35:40;;;;;;;7.35;1.38;;;;;;;10.75;67.28;102581.47;7382825;19;20484;-64
2022/04/28 05:38:10;;;;;;;11.20;2.08;;;;;;;10.78;66.96;102589.97;7384367;19;20027;-64
2022/04/28 05:40:42;;;;;;;7.32;1.88;;;;;;;10.78;66.77;102597.03;7385485;19;20018;-67
2022/04/28 05:45:57;;;;;;;7.85;1.80;;;;;;;10.58;67.51;102604.56;7384372;19;20024;-64
2022/04/28 05:48:24;;;;;;;7.45;1.52;;;;;;;10.56;67.88;102606.47;7381666;19;20475;-64
2022/04/28 05:50:51;;;;;;;11.50;1.70;;;;;;;10.57;68.36;102610.78;7387571;19;20013;-66
2022/04/28 05:53:18;;;;;;;7.00;1.75;;;;;;;10.60;68.45;102612.34;7386149;19;20062;-64
2022/04/28 05:55:46;;;;;;;9.10;1.70;;;;;;;10.64;67.62;102608.56;7384290;19;20013;-66
2022/04/28 05:58:16;;;;;;;6.95;2.20;;;;;;;10.65;68.61;102611.09;7387887;19;20010;-65
2022/04/28 06:00:47;;;;;;;9.50;2.13;;;;;;;10.65;68.01;102611.09;7385695;19;20572;-66
2022/04/28 06:03:14;;;;;;;8.93;1.88;;;;;;;10.71;67.66;102615.91;7384802;19;20428;-64
2022/04/28 06:05:41;;;;;;;10.13;2.65;;;;;;;10.76;67.40;102620.00;7384084;19;20045;-66
2022/04/28 06:08:08;;;;;;;10.13;1.85;;;;;;;10.85;66.30;102627.25;7386570;19;20011;-65
2022/04/28 06:10:38;;;;;;;8.80;2.30;;;;;;;10.86;67.02;102627.16;7386832;19;20632;-66
2022/04/28 06:13:06;;;;;;;6.97;1.80;;;;;;;10.85;66.01;102636.00;7385195;19;20019;-63
2022/04/28 06:15:33;;;;;;;9.13;2.22;;;;;;;10.89;65.13;102631.34;7381364;19;20014;-65
2022/04/28 06:18:00;;;;;;;5.00;1.77;;;;;;;10.93;65.17;102622.25;7385463;19;20022;-65
2022/04/28 06:20:27;;;;;;;8.40;1.83;;;;;;;10.96;65.32;102625.53;7387869;19;20013;-67
2022/04/28 06:22:55;;;;;;;5.03;2.10;;;;;;;11.00;65.57;102632.25;7386320;19;20091;-64
2022/04/28 06:25:23;;;;;;;4.38;1.30;;;;;;;11.09;65.47;102625.47;7380154;19;20014;-64
2022/04/28 06:27:51;;;;;;;7.63;2.10;;;;;;;11.14;64.73;102623.34;7383918;19;20019;-66
2022/04/28 06:30:18;;;;;;;4.93;1.98;;;;;;;11.25;64.05;102626.03;7386428;19;20010;-66
2022/04/28 06:32:45;;;;;;;3.90;1.23;;;;;;;11.40;63.37;102624.91;7389313;19;20017;-65
2022/04/28 06:35:12;;;;;;;4.07;1.38;;;;;;;11.52;62.53;102628.44;7388973;19;20032;-65
2022/04/28 06:37:39;;;;;;;9.10;1.80;;;;;;;11.57;61.74;102621.88;7392046;19;20033;-65
2022/04/28 06:40:11;;;;;;;6.05;1.55;;;;;;;11.62;62.28;102618.03;7394481;19;20014;-65
2022/04/28 06:42:43;;;;;;;3.17;1.58;;;;;;;11.57;61.99;102619.22;7391266;19;20038;-65
2022/04/28 06:45:12;;;;;;;6.68;1.50;;;;;;;11.64;61.34;102635.41;7389280;19;20038;-64
2022/04/28 06:47:41;;;;;;;5.47;1.58;;;;;;;11.69;60.79;102641.19;7395125;19;20650;-66
2022/04/28 06:50:08;;;;;;;7.28;1.80;;;;;;;11.72;60.75;102638.34;7394164;19;20355;-66
2022/04/28 06:52:36;;;;;;;5.22;1.60;;;;;;;11.77;60.91;102636.22;7392051;19;20013;-65
2022/04/28 06:55:04;;;;;;;10.27;1.88;;;;;;;11.84;60.88;102640.06;7381602;19;20335;-69
2022/04/28 06:57:32;;;;;;;5.40;1.30;;;;;;;11.96;60.02;102628.59;7381009;19;20066;-67
2022/04/28 06:59:59;;;;;;;7.20;1.50;;;;;;;12.03;59.90;102636.88;7388512;19;20477;-64
2022/04/28 07:02:26;;;;;;;9.38;1.70;;;;;;;12.08;59.36;102639.16;7378686;19;20015;-65
2022/04/28 07:04:53;;;;;;;3.63;1.35;;;;;;;12.10;59.31;102624.88;7388781;19;20010;-63
2022/04/28 07:07:20;;;;;;;5.05;1.70;;;;;;;12.11;59.02;102629.22;7386125;19;20344;-67
2022/04/28 07:09:47;;;;;;;3.63;1.60;;;;;;;12.09;58.22;102631.09;7367851;19;20027;-65
2022/04/28 07:12:32;;;;;;;7.32;1.45;;;;;;;12.09;58.24;102638.22;7385180;19;20014;-65
2022/04/28 07:14:59;;;;;;;4.50;1.20;;;;;;;12.05;58.03;102631.47;7390942;19;20070;-64
2022/04/28 07:17:26;;;;;;;5.43;1.17;;;;;;;12.03;57.52;102633.41;7392468;19;20014;-66
2022/04/28 07:19:52;;;;;;;7.20;0.95;;;;;;;12.03;58.16;102628.13;7390645;19;20110;-66
2022/04/28 07:22:19;;;;;;;3.92;1.20;;;;;;;11.98;57.80;102620.56;7390674;19;20078;-67
2022/04/28 07:24:46;;;;;;;2.65;0.90;;;;;;;11.96;58.00;102625.09;7391657;19;20464;-63
2022/04/28 07:27:13;;;;;;;7.95;1.17;;;;;;;11.98;58.78;102629.31;7389290;19;20014;-66
2022/04/28 07:29:40;;;;;;;8.75;1.20;;;;;;;12.03;57.77;102633.41;7389511;19;20042;-65
2022/04/28 07:32:09;;;;;;;5.25;0.95;;;;;;;12.05;58.98;102636.75;7392115;19;20017;-66
2022/04/28 07:34:36;;;;;;;5.93;1.60;;;;;;;12.13;58.32;102643.13;7387920;19;20013;-65
2022/04/28 07:37:04;;;;;;;5.13;1.55;;;;;;;12.24;59.42;102644.94;7389029;19;20032;-62
2022/04/28 07:39:31;;;;;;;5.25;1.70;;;;;;;12.31;57.42;102644.34;7392262;19;20106;-64
2022/04/28 07:41:58;;;;;;;9.90;1.83;;;;;;;12.37;57.33;102658.88;7389766;19;20088;-63
2022/04/28 07:44:25;;;;;;;6.45;1.50;;;;;;;12.36;57.72;102658.03;7391854;19;20010;-65
2022/04/28 07:46:52;;;;;;;5.97;1.73;;;;;;;12.35;56.94;102663.41;7390190;19;20014;-63
2022/04/28 07:49:19;;;;;;;5.35;1.38;;;;;;;12.39;58.64;102659.59;7387006;19;20031;-65
2022/04/28 07:51:45;;;;;;;4.95;1.08;;;;;;;12.35;57.41;102653.69;7389870;19;20018;-65
2022/04/28 07:54:12;;;;;;;4.57;1.23;;;;;;;12.36;57.89;102651.91;7388781;19;20021;-64
2022/04/28 07:56:40;;;;;;;7.03;1.70;;;;;;;12.42;57.58;102656.72;7389170;19;20011;-64
2022/04/28 07:59:09;;;;;;;3.30;1.65;;;;;;;12.46;57.06;102659.94;7388222;19;20348;-64
2022/04/28 08:01:50;;;;;;;8.63;1.80;;;;;;;12.54;58.31;102668.13;7387863;19;20021;-67
2022/04/28 08:04:17;;;;;;;5.75;1.67;;;;;;;12.61;56.62;102669.31;7385738;19;20006;-67
2022/04/28 08:06:44;;;;;;;6.57;1.95;;;;;;;12.49;55.64;102667.63;7388553;19;20501;-63
2022/04/28 08:09:11;;;;;;;8.85;2.17;;;;;;;12.39;55.75;102678.88;7391633;19;20014;-66
2022/04/28 08:11:40;;;;;;;5.50;1.17;;;;;;;12.33;56.41;102675.91;7388088;19;20014;-65
2022/04/28 08:14:07;;;;;;;7.20;1.35;;;;;;;12.31;56.72;102675.16;7390975;19;20070;-63
2022/04/28 08:16:34;;;;;;;9.32;2.60;;;;;;;12.24;57.72;102679.25;7387731;19;20010;-67
2022/04/28 08:19:02;;;;;;;5.32;1.92;;;;;;;12.25;56.74;102679.13;7388421;19;20019;-65
2022/04/28 08:21:30;;;;;;;5.25;1.52;;;;;;;12.27;56.01;102686.94;7387745;19;20318;-63
2022/04/28 08:23:57;;;;;;;12.30;1.80;;;;;;;12.19;55.95;102691.97;7390001;19;20389;-64
2022/04/28 08:26:24;;;;;;;3.05;1.40;;;;;;;12.19;56.59;102684.84;7385382;19;20011;-63
2022/04/28 08:28:51;;;;;;;3.58;1.60;;;;;;;12.23;57.05;102688.97;7386680;19;20021;-67
2022/04/28 08:31:26;;;;;;;9.30;1.75;;;;;;;12.26;55.94;102686.09;7388843;19;20014;-65
2022/04/28 08:33:59;;;;;;;5.90;1.40;;;;;;;12.30;55.87;102689.31;7385349;19;20014;-66
2022/04/28 08:36:26;;;;;;;6.38;1.70;;;;;;;12.28;55.98;102680.69;7387187;19;20011;-65
2022/04/28 08:38:53;;;;;;;4.68;1.30;;;;;;;12.32;55.40;102680.34;7387683;19;20030;-66
2022/04/28 08:41:35;;;;;;;6.60;1.52;;;;;;;12.36;55.26;102680.94;7387996;19;20438;-65
2022/04/28 08:44:04;;;;;;;11.55;1.52;;;;;;;12.33;55.53;102682.03;7390797;19;20029;-63
2022/04/28 08:49:22;;;;;;;6.18;2.75;;;;;;;12.34;56.14;102677.59;7388336;19;20026;-65
2022/04/28 08:51:57;;;;;;;5.43;1.65;;;;;;;12.38;56.05;102686.94;7387776;19;20017;-65
2022/04/28 08:54:27;;;;;;;5.38;1.45;;;;;;;12.39;56.04;102686.00;7384428;19;20074;-65
2022/04/28 08:56:56;;;;;;;5.57;1.70;;;;;;;12.50;55.25;102688.63;7388791;19;20419;-66
2022/04/28 08:59:24;;;;;;;6.85;2.17;;;;;;;12.53;55.12;102684.91;7384788;19;20463;-64
2022/04/28 09:01:51;;;;;;;6.68;1.67;;;;;;;12.52;55.51;102683.22;7388995;19;20017;-63
2022/04/28 09:04:19;;;;;;;8.20;1.83;;;;;;;12.54;55.64;102676.03;7384019;19;20370;-62
2022/04/28 09:06:50;;;;;;;7.93;2.45;;;;;;;12.47;56.95;102680.94;7388096;19;20102;-65
2022/04/28 09:09:19;;;;;;;8.13;1.92;;;;;;;12.54;55.91;102678.69;7387236;19;20018;-66
2022/04/28 09:11:47;;;;;;;7.13;2.28;;;;;;;12.56;56.21;102684.66;7386304;19;20014;-63
2022/04/28 09:14:23;;;;;;;7.60;2.08;;;;;;;12.58;56.82;102686.25;7388847;19;20022;-65
2022/04/28 09:16:51;;;;;;;9.90;2.30;;;;;;;12.65;56.91;102690.06;7384098;19;20091;-65
2022/04/28 09:19:23;;;;;;;8.40;2.58;;;;;;;12.70;56.77;102676.50;7387502;19;20015;-64
2022/04/28 09:21:53;;;;;;;7.70;2.10;;;;;;;12.79;56.61;102689.00;7385813;19;20042;-64
2022/04/28 09:24:22;;;;;;;8.20;1.92;;;;;;;12.91;55.36;102682.72;7389027;19;20523;-66
2022/04/28 09:26:50;;;;;;;5.00;1.70;;;;;;;12.96;54.80;102677.91;7385804;19;20014;-65
2022/04/28 09:29:18;;;;;;;6.35;2.08;;;;;;;12.93;55.61;102672.88;7388716;19;20436;-67
2022/04/28 09:31:48;;;;;;;9.90;1.95;;;;;;;12.80;54.66;102683.56;7385341;19;20010;-64
2022/04/28 09:34:48;;;;;;;9.18;1.80;;;;;;;12.67;55.21;102682.88;7386479;19;20018;-64
2022/04/28 09:37:25;;;;;;;7.88;2.30;;;;;;;12.63;55.43;102685.88;7383343;19;20028;-63
2022/04/28 09:42:39;;;;;;;6.95;2.13;;;;;;;12.76;55.71;102683.94;7384761;19;20021;-63
2022/04/28 09:45:09;;;;;;;11.98;2.20;;;;;;;12.77;56.25;102691.75;7387728;19;20015;-65
2022/04/28 09:47:36;;;;;;;8.18;2.40;;;;;;;12.84;56.47;102687.69;7383287;19;20007;-66
2022/04/28 09:50:16;;;;;;;4.72;1.80;;;;;;;12.98;55.14;102686.56;7387484;19;20019;-65
2022/04/28 09:52:59;;;;;;;6.43;2.03;;;;;;;13.10;55.67;102680.31;7366358;19;20378;-63
2022/04/28 09:55:30;;;;;;;5.88;2.30;;;;;;;13.19;55.22;102684.06;7379482;19;20065;-64
2022/04/28 09:57:58;;;;;;;6.80;2.00;;;;;;;13.26;55.03;102682.56;7383910;19;20020;-65
2022/04/28 10:00:25;;;;;;;8.25;2.38;;;;;;;13.33;54.94;102683.75;7385554;19;20011;-64
2022/04/28 10:02:54;;;;;;;9.25;2.55;;;;;;;13.41;54.94;102680.50;7385891;19;20019;-65
2022/04/28 10:05:23;;;;;;;8.80;2.60;;;;;;;13.42;55.27;102671.59;7383169;19;20011;-65
2022/04/28 10:07:52;;;;;;;7.30;2.05;;;;;;;13.53;54.70;102679.50;7391342;19;20350;-65
2022/04/28 10:10:19;;;;;;;4.68;2.25;;;;;;;13.57;54.68;102673.81;7389990;19;20021;-66
2022/04/28 10:12:47;;;;;;;6.22;2.42;;;;;;;13.54;54.23;102675.88;7391879;19;20014;-64
2022/04/28 10:15:15;;;;;;;5.38;1.95;;;;;;;13.56;54.11;102668.69;7392095;19;20117;-66
2022/04/28 10:17:49;;;;;;;9.63;3.05;;;;;;;13.58;55.28;102683.44;7392208;19;20189;-65
2022/04/28 10:20:39;;;;;;;9.50;2.85;;;;;;;13.57;55.09;102686.19;7390826;19;20010;-65
2022/04/28 10:35:04;;;;;;;7.15;2.15;;;;;;;13.76;54.01;102674.97;7394159;19;20029;-65
2022/04/28 10:37:35;;;;;;;10.32;2.90;;;;;;;13.75;54.31;102675.91;7389481;19;20704;-64
2022/04/28 10:40:11;;;;;;;7.50;2.10;;;;;;;13.81;54.26;102675.41;7391070;19;20093;-65
2022/04/28 10:42:38;;;;;;;9.45;2.97;;;;;;;13.89;54.75;102673.78;7387992;19;20011;-65
2022/04/28 10:45:19;;;;;;;10.82;4.70;;;;;;;14.05;54.26;102684.78;7394244;19;20019;-66
2022/04/28 10:47:46;;;;;;;8.88;3.00;;;;;;;14.13;53.92;102679.66;7392382;19;20106;-66
2022/04/28 10:50:24;;;;;;;9.13;3.45;;;;;;;14.23;54.83;102685.00;7392494;19;20058;-65
2022/04/28 10:52:56;;;;;;;10.00;3.10;;;;;;;14.29;53.57;102676.53;7389278;19;20331;-66
2022/04/28 10:55:31;;;;;;;7.35;3.10;;;;;;;14.34;53.26;102676.16;7385263;19;20011;-64
2022/04/28 10:58:17;;;;;;;8.25;3.67;;;;;;;14.38;53.54;102678.44;7389519;19;20022;-65
2022/04/28 11:01:26;;;;;;;6.35;2.92;;;;;;;14.38;52.99;102682.88;7391806;19;20018;-67
2022/04/28 11:03:59;;;;;;;7.93;3.13;;;;;;;14.34;52.54;102676.16;7389981;19;20098;-65
2022/04/28 11:06:29;;;;;;;;;;;;;;;14.30;52.21;102674.75;7392246;19;20519;-66
2022/04/28 11:08:59;;;;;;;5.63;2.25;;;;;;;14.23;53.39;102677.06;7389443;19;19917;-66
2022/04/28 11:11:41;;;;;;;9.88;3.33;;;;;;;14.20;52.45;102672.03;7390515;19;20082;-65
2022/04/28 11:14:08;;;;;;;10.00;2.65;;;;;;;14.08;52.90;102675.72;7392404;19;20123;-64
2022/04/28 11:16:36;;;;;;;11.40;3.22;;;;;;;14.13;53.09;102669.06;7391695;19;20017;-65
2022/04/28 11:19:03;;;;;;;5.18;2.50;;;;;;;14.14;53.47;102668.09;7385251;19;20048;-65
2022/04/28 11:21:30;;;;;;;10.15;3.30;;;;;;;14.13;53.53;102666.41;7389656;19;20440;-64
2022/04/28 11:23:58;;;;;;;10.60;3.03;;;;;;;14.16;53.46;102681.22;7391622;19;20017;-64
2022/04/28 11:26:28;;;;;;;11.07;3.03;;;;;;;14.16;53.19;102667.97;7389509;19;20014;-67
2022/04/28 11:28:56;;;;;;;6.55;2.90;;;;;;;14.16;53.85;102670.63;7386963;19;20015;-68
2022/04/28 11:31:26;;;;;;;12.48;3.13;;;;;;;14.09;53.71;102675.59;7386486;19;21128;-67
2022/04/28 11:33:54;;;;;;;9.55;3.03;;;;;;;14.12;54.32;102677.13;7388463;19;20015;-65
2022/04/28 11:36:30;;;;;;;9.67;3.20;;;;;;;14.17;53.90;102679.41;7391352;19;20074;-64
2022/04/28 11:39:03;;;;;;;6.68;3.10;;;;;;;14.08;53.88;102679.22;7387070;19;20030;-63
2022/04/28 11:41:33;;;;;;;9.45;3.25;;;;;;;14.10;53.65;102684.38;7386820;19;20015;-64
2022/04/28 11:44:07;;;;;;;9.73;3.50;;;;;;;14.19;53.89;102685.41;7392894;19;20126;-65
2022/04/28 11:46:37;;;;;;;9.15;3.10;;;;;;;14.21;53.85;102681.66;7388523;19;20010;-67
2022/04/28 11:49:04;;;;;;;8.23;3.88;;;;;;;14.22;53.55;102688.63;7389582;19;20015;-65
2022/04/28 11:51:33;;;;;;;8.40;3.50;;;;;;;14.24;53.81;102684.03;7386315;19;20025;-64
2022/04/28 11:54:01;;;;;;;7.70;3.30;;;;;;;14.30;54.03;102674.75;7390115;19;20463;-65
2022/04/28 11:56:33;;;;;;;10.60;3.78;;;;;;;14.37;54.58;102686.53;7386974;19;20460;-66
2022/04/28 11:59:04;;;;;;;11.43;4.15;;;;;;;14.49;54.50;102685.47;7389058;19;20011;-64
2022/04/28 12:01:33;;;;;;;9.32;3.65;;;;;;;14.64;53.95;102689.44;7388829;19;20527;-66
2022/04/28 12:04:01;;;;;;;8.98;3.33;;;;;;;14.78;53.56;102688.25;7387187;19;20018;-64
2022/04/28 12:06:28;;;;;;;7.53;3.30;;;;;;;14.91;52.06;102694.13;7391144;19;20483;-64
2022/04/28 12:08:56;;;;;;;11.75;3.83;;;;;;;14.92;52.39;102695.81;7388519;19;20023;-65
2022/04/28 12:14:28;;;;;;;8.32;4.05;;;;;;;15.04;51.96;102696.53;7389874;19;20025;-66